createdAt,value
2019-03-19T00:00:16.588Z,4.60
2019-03-19T00:02:45.039Z,4.60
2019-03-19T00:05:13.560Z,4.60
2019-03-19T00:07:42.066Z,4.60
2019-03-19T00:10:10.759Z,4.70
2019-03-19T00:12:39.213Z,4.70
2019-03-19T00:15:09.937Z,4.70
2019-03-19T00:17:38.466Z,4.70
2019-03-19T00:20:10.028Z,4.70
2019-03-19T00:22:38.531Z,4.70
2019-03-19T00:25:07.596Z,4.70
2019-03-19T00:27:36.043Z,4.70
2019-03-19T00:30:12.987Z,4.70
2019-03-19T00:32:41.512Z,4.70
2019-03-19T00:35:10.042Z,4.70
2019-03-19T00:37:38.629Z,4.70
2019-03-19T00:40:09.399Z,4.70
2019-03-19T00:42:37.926Z,4.70
2019-03-19T00:45:09.332Z,4.70
2019-03-19T00:47:37.936Z,4.60
2019-03-19T00:50:09.875Z,4.60
2019-03-19T00:52:38.336Z,4.60
2019-03-19T00:55:07.770Z,4.50
2019-03-19T00:57:36.295Z,4.60
2019-03-19T01:00:16.537Z,4.50
2019-03-19T01:02:45.068Z,4.50
2019-03-19T01:05:13.872Z,4.50
2019-03-19T01:07:42.423Z,4.40
2019-03-19T01:10:12.755Z,4.40
2019-03-19T01:12:40.511Z,4.40
2019-03-19T01:15:11.210Z,4.40
2019-03-19T01:17:39.742Z,4.40
2019-03-19T01:20:13.114Z,4.30
2019-03-19T01:22:41.656Z,4.30
2019-03-19T01:25:10.812Z,4.20
2019-03-19T01:27:39.328Z,4.20
2019-03-19T01:30:10.454Z,4.20
2019-03-19T01:32:39.171Z,4.20
2019-03-19T01:35:08.472Z,4.10
2019-03-19T01:37:36.970Z,4.10
2019-03-19T01:40:08.234Z,4.00
2019-03-19T01:42:36.722Z,4.00
2019-03-19T01:45:08.186Z,4.00
2019-03-19T01:47:36.640Z,3.90
2019-03-19T01:50:07.864Z,3.90
2019-03-19T01:52:36.315Z,3.90
2019-03-19T01:55:07.907Z,3.90
2019-03-19T01:57:36.414Z,3.80
2019-03-19T02:00:11.004Z,3.80
2019-03-19T02:02:39.462Z,3.90
2019-03-19T02:05:08.359Z,3.90
2019-03-19T02:07:38.162Z,4.00
2019-03-19T02:10:18.534Z,4.00
2019-03-19T02:12:46.249Z,4.00
2019-03-19T02:15:18.720Z,4.00
2019-03-19T02:17:47.155Z,4.00
2019-03-19T02:20:16.875Z,4.10
2019-03-19T02:22:45.377Z,4.10
2019-03-19T02:25:13.818Z,4.10
2019-03-19T02:27:42.275Z,4.10
2019-03-19T02:30:17.149Z,4.10
2019-03-19T02:32:45.647Z,4.10
2019-03-19T02:35:14.158Z,4.10
2019-03-19T02:37:42.598Z,4.10
2019-03-19T02:40:12.911Z,4.10
2019-03-19T02:42:41.213Z,4.10
2019-03-19T02:45:12.318Z,4.10
2019-03-19T02:47:40.748Z,4.10
2019-03-19T02:50:18.893Z,4.20
2019-03-19T02:52:47.343Z,4.10
2019-03-19T02:55:15.850Z,4.10
2019-03-19T02:57:44.377Z,4.10
2019-03-19T03:00:17.717Z,4.10
2019-03-19T03:02:46.161Z,4.10
2019-03-19T03:05:16.802Z,4.00
2019-03-19T03:07:45.658Z,4.00
2019-03-19T03:10:14.514Z,4.00
2019-03-19T03:12:42.965Z,4.00
2019-03-19T03:15:13.157Z,4.00
2019-03-19T03:17:41.746Z,4.00
2019-03-19T03:20:12.935Z,4.00
2019-03-19T03:22:41.378Z,4.00
2019-03-19T03:25:12.330Z,4.00
2019-03-19T03:27:40.806Z,4.10
2019-03-19T03:30:16.694Z,4.00
2019-03-19T03:32:45.287Z,4.10
2019-03-19T03:35:13.866Z,4.00
2019-03-19T03:37:42.385Z,4.00
2019-03-19T03:40:18.316Z,4.10
2019-03-19T03:42:46.981Z,4.10
2019-03-19T03:45:16.373Z,4.00
2019-03-19T03:47:44.879Z,4.00
2019-03-19T03:50:15.553Z,4.00
2019-03-19T03:52:44.166Z,4.10
2019-03-19T03:55:16.594Z,4.00
2019-03-19T03:57:45.155Z,4.10
2019-03-19T04:00:18.989Z,4.10
2019-03-19T04:02:47.733Z,4.10
2019-03-19T04:05:16.724Z,4.10
2019-03-19T04:07:45.239Z,4.10
2019-03-19T04:10:15.344Z,4.10
2019-03-19T04:12:43.862Z,4.10
2019-03-19T04:15:16.651Z,4.00
2019-03-19T04:17:45.283Z,4.00
2019-03-19T04:20:18.325Z,4.00
2019-03-19T04:22:46.774Z,4.00
2019-03-19T04:25:15.273Z,4.00
2019-03-19T04:27:43.776Z,4.00
2019-03-19T04:30:16.163Z,4.00
2019-03-19T04:32:44.607Z,4.00
2019-03-19T04:35:13.056Z,4.00
2019-03-19T04:37:41.545Z,4.00
2019-03-19T04:40:14.880Z,4.00
2019-03-19T04:42:44.063Z,4.10
2019-03-19T04:45:16.460Z,4.10
2019-03-19T04:47:45.185Z,4.10
2019-03-19T04:50:15.777Z,4.10
2019-03-19T04:52:44.429Z,4.00
2019-03-19T04:55:16.396Z,4.00
2019-03-19T04:57:45.055Z,3.90
2019-03-19T05:00:16.650Z,4.00
2019-03-19T05:02:45.096Z,4.00
2019-03-19T05:05:14.124Z,3.90
2019-03-19T05:07:42.567Z,4.00
2019-03-19T05:10:18.724Z,3.90
2019-03-19T05:12:47.231Z,3.90
2019-03-19T05:15:15.709Z,3.90
2019-03-19T05:17:44.159Z,3.90
2019-03-19T05:20:13.534Z,3.90
2019-03-19T05:22:42.009Z,3.90
2019-03-19T05:25:11.238Z,4.00
2019-03-19T05:27:39.953Z,4.00
2019-03-19T05:30:13.249Z,4.00
2019-03-19T05:32:41.737Z,4.00
2019-03-19T05:35:10.521Z,4.00
2019-03-19T05:37:39.047Z,4.00
2019-03-19T05:40:10.256Z,4.00
2019-03-19T05:42:38.784Z,4.10
2019-03-19T05:45:10.428Z,4.10
2019-03-19T05:47:40.455Z,4.10
2019-03-19T05:50:11.536Z,4.10
2019-03-19T05:52:40.054Z,4.10
2019-03-19T05:55:09.487Z,4.10
2019-03-19T05:57:48.415Z,4.10
2019-03-19T06:00:11.221Z,4.20
2019-03-19T06:02:39.689Z,4.20
2019-03-19T06:05:10.949Z,4.20
2019-03-19T06:07:39.433Z,4.30
2019-03-19T06:10:13.375Z,4.30
2019-03-19T06:12:42.015Z,4.30
2019-03-19T06:15:17.002Z,4.40
2019-03-19T06:17:45.565Z,4.40
2019-03-19T06:20:17.145Z,4.30
2019-03-19T06:22:45.604Z,4.40
2019-03-19T06:25:14.416Z,4.40
2019-03-19T06:27:42.857Z,4.30
2019-03-19T06:30:16.690Z,4.30
2019-03-19T06:32:45.290Z,4.20
2019-03-19T06:35:14.974Z,4.20
2019-03-19T06:37:43.454Z,4.20
2019-03-19T06:40:14.101Z,4.20
2019-03-19T06:42:42.546Z,4.30
2019-03-19T06:45:15.678Z,4.50
2019-03-19T06:47:44.291Z,4.50
2019-03-19T06:50:17.534Z,4.60
2019-03-19T06:52:46.018Z,4.60
2019-03-19T06:55:16.476Z,4.60
2019-03-19T06:57:44.150Z,4.60
2019-03-19T07:00:20.848Z,4.50
2019-03-19T07:02:49.526Z,4.50
2019-03-19T07:05:39.236Z,4.50
2019-03-19T07:08:07.749Z,4.50
2019-03-19T07:10:36.193Z,4.50
2019-03-19T07:13:04.862Z,4.60
2019-03-19T07:15:33.431Z,4.60
2019-03-19T07:18:01.902Z,4.70
2019-03-19T07:20:30.384Z,4.70
2019-03-19T07:22:58.873Z,4.70
2019-03-19T07:25:27.326Z,4.80
2019-03-19T07:27:55.765Z,4.90
2019-03-19T07:30:25.583Z,5.10
2019-03-19T07:32:54.103Z,5.00
2019-03-19T07:35:23.583Z,5.10
2019-03-19T07:37:52.089Z,5.10
2019-03-19T07:40:20.609Z,5.30
2019-03-19T07:42:49.131Z,5.30
2019-03-19T07:45:21.873Z,5.40
2019-03-19T07:47:50.445Z,5.30
2019-03-19T07:50:20.225Z,5.30
2019-03-19T07:52:48.754Z,5.40
2019-03-19T07:55:17.319Z,5.30
2019-03-19T07:57:45.829Z,5.30
2019-03-19T08:00:15.926Z,5.30
2019-03-19T08:02:44.640Z,5.40
2019-03-19T08:05:13.736Z,5.40
2019-03-19T08:07:42.312Z,5.50
2019-03-19T08:10:17.559Z,5.50
2019-03-19T08:12:46.793Z,5.60
2019-03-19T08:15:16.387Z,5.60
2019-03-19T08:17:44.844Z,5.60
2019-03-19T08:20:15.737Z,5.60
2019-03-19T08:22:44.418Z,5.60
2019-03-19T08:25:13.798Z,5.60
2019-03-19T08:27:42.281Z,5.70
2019-03-19T08:30:18.831Z,5.70
2019-03-19T08:32:47.395Z,5.70
2019-03-19T08:35:15.834Z,5.80
2019-03-19T08:37:44.271Z,5.80
2019-03-19T08:40:36.574Z,5.80
2019-03-19T08:43:05.006Z,5.80
2019-03-19T08:45:33.482Z,6.00
2019-03-19T08:48:01.936Z,6.10
2019-03-19T08:50:30.406Z,6.20
2019-03-19T08:52:58.850Z,6.30
2019-03-19T08:55:27.642Z,6.30
2019-03-19T08:57:56.121Z,6.40
2019-03-19T09:00:26.264Z,6.40
2019-03-19T09:02:54.773Z,6.50
2019-03-19T09:05:23.222Z,6.60
2019-03-19T09:07:51.671Z,6.40
2019-03-19T09:10:23.365Z,6.30
2019-03-19T09:12:51.800Z,6.20
2019-03-19T09:15:27.509Z,6.30
2019-03-19T09:17:55.998Z,6.20
2019-03-19T09:20:24.440Z,6.30
2019-03-19T09:22:52.954Z,6.40
2019-03-19T09:25:21.399Z,6.50
2019-03-19T09:27:49.849Z,6.70
2019-03-19T09:30:19.578Z,6.70
2019-03-19T09:32:48.105Z,6.70
2019-03-19T09:35:16.626Z,6.70
2019-03-19T09:37:57.240Z,6.80
2019-03-19T09:40:19.988Z,6.80
2019-03-19T09:42:48.845Z,6.80
2019-03-19T09:45:18.161Z,6.80
2019-03-19T09:47:47.040Z,6.70
2019-03-19T09:50:20.817Z,6.70
2019-03-19T09:52:49.332Z,6.80
2019-03-19T09:55:17.944Z,7.00
2019-03-19T09:57:46.728Z,7.20
2019-03-19T10:00:23.114Z,7.30
2019-03-19T10:02:51.803Z,7.30
2019-03-19T10:05:20.314Z,7.20
2019-03-19T10:07:48.933Z,7.20
2019-03-19T10:10:23.868Z,7.20
2019-03-19T10:12:52.366Z,7.20
2019-03-19T10:15:20.986Z,7.20
2019-03-19T10:17:49.511Z,7.20
2019-03-19T10:20:23.076Z,7.20
2019-03-19T10:22:51.531Z,7.30
2019-03-19T10:25:19.999Z,7.50
2019-03-19T10:27:48.446Z,7.60
2019-03-19T10:30:24.644Z,7.60
2019-03-19T10:32:53.093Z,7.50
2019-03-19T10:35:21.779Z,7.50
2019-03-19T10:37:50.287Z,7.60
2019-03-19T10:40:19.679Z,7.70
2019-03-19T10:42:48.368Z,7.70
2019-03-19T10:45:18.162Z,7.50
2019-03-19T10:47:46.597Z,7.50
2019-03-19T10:50:23.055Z,7.50
2019-03-19T10:52:51.509Z,7.60
2019-03-19T10:55:20.092Z,7.80
2019-03-19T10:57:48.646Z,7.90
2019-03-19T11:00:24.142Z,8.30
2019-03-19T11:02:53.070Z,8.70
2019-03-19T11:05:22.649Z,8.80
2019-03-19T11:07:51.417Z,9.00
2019-03-19T11:10:20.194Z,9.30
2019-03-19T11:12:48.642Z,9.20
2019-03-19T11:15:18.488Z,9.40
2019-03-19T11:17:47.010Z,9.10
2019-03-19T11:20:17.293Z,8.90
2019-03-19T11:22:46.063Z,8.70
2019-03-19T11:25:25.833Z,8.40
2019-03-19T11:27:54.409Z,8.30
2019-03-19T11:30:30.843Z,8.30
2019-03-19T11:32:59.449Z,8.20
2019-03-19T11:35:28.067Z,8.10
2019-03-19T11:37:56.522Z,8.10
2019-03-19T11:40:26.126Z,8.40
2019-03-19T11:42:54.851Z,9.00
2019-03-19T11:45:25.112Z,9.60
2019-03-19T11:47:53.585Z,9.80
2019-03-19T11:50:26.474Z,10.00
2019-03-19T11:52:55.160Z,10.00
2019-03-19T11:55:23.701Z,10.20
2019-03-19T11:57:52.679Z,10.20
2019-03-19T12:00:33.208Z,10.50
2019-03-19T12:03:11.432Z,10.30
2019-03-19T12:05:31.841Z,10.10
2019-03-19T12:08:00.367Z,9.90
2019-03-19T12:10:28.945Z,9.40
2019-03-19T12:12:57.561Z,9.10
2019-03-19T12:15:26.209Z,8.90
2019-03-19T12:17:54.657Z,8.80
2019-03-19T12:20:23.146Z,8.90
2019-03-19T12:22:51.590Z,9.00
2019-03-19T12:25:20.201Z,9.30
2019-03-19T12:27:48.710Z,9.40
2019-03-19T12:30:25.757Z,9.40
2019-03-19T12:32:52.204Z,9.40
2019-03-19T12:35:21.059Z,9.30
2019-03-19T12:37:49.514Z,9.20
2019-03-19T12:40:22.094Z,9.00
2019-03-19T12:42:50.577Z,8.90
2019-03-19T12:45:20.370Z,8.80
2019-03-19T12:47:48.859Z,8.70
2019-03-19T12:50:20.009Z,8.60
2019-03-19T12:52:48.452Z,8.60
2019-03-19T12:55:16.930Z,8.60
2019-03-19T12:57:47.012Z,8.50
2019-03-19T13:00:33.468Z,8.50
2019-03-19T13:02:53.078Z,8.60
2019-03-19T13:05:22.696Z,9.20
2019-03-19T13:07:51.911Z,9.80
2019-03-19T13:10:24.998Z,9.80
2019-03-19T13:12:53.473Z,10.00
2019-03-19T13:15:22.160Z,10.30
2019-03-19T13:17:50.623Z,10.70
2019-03-19T13:20:23.157Z,11.10
2019-03-19T13:22:51.722Z,11.30
2019-03-19T13:25:25.141Z,11.50
2019-03-19T13:27:53.822Z,11.20
2019-03-19T13:30:30.127Z,10.50
2019-03-19T13:32:58.705Z,9.90
2019-03-19T13:35:27.150Z,9.60
2019-03-19T13:37:55.586Z,9.50
2019-03-19T13:40:24.126Z,9.40
2019-03-19T13:42:52.604Z,9.40
2019-03-19T13:45:24.438Z,9.40
2019-03-19T13:47:53.074Z,9.30
2019-03-19T13:50:22.462Z,9.30
2019-03-19T13:52:50.905Z,9.20
2019-03-19T13:55:23.341Z,9.00
2019-03-19T13:57:51.854Z,8.90
2019-03-19T14:00:20.582Z,8.80
2019-03-19T14:02:49.154Z,8.80
2019-03-19T14:05:18.311Z,8.90
2019-03-19T14:07:46.737Z,9.00
2019-03-19T14:10:20.033Z,9.10
2019-03-19T14:12:48.749Z,9.30
2019-03-19T14:15:27.507Z,9.60
2019-03-19T14:17:56.096Z,10.00
2019-03-19T14:20:24.552Z,10.00
2019-03-19T14:22:53.057Z,10.10
2019-03-19T14:25:21.512Z,10.20
2019-03-19T14:27:50.036Z,10.30
2019-03-19T14:30:19.673Z,10.10
2019-03-19T14:32:48.120Z,9.70
2019-03-19T14:35:16.639Z,9.40
2019-03-19T14:37:45.282Z,9.20
2019-03-19T14:40:22.248Z,9.00
2019-03-19T14:42:50.893Z,8.90
2019-03-19T14:45:19.943Z,8.80
2019-03-19T14:47:48.530Z,8.80
2019-03-19T14:50:21.615Z,8.70
2019-03-19T14:52:50.059Z,8.70
2019-03-19T14:55:18.737Z,8.70
2019-03-19T14:57:47.183Z,8.80
2019-03-19T15:00:23.199Z,8.80
2019-03-19T15:02:51.689Z,8.80
2019-03-19T15:05:20.296Z,8.90
2019-03-19T15:07:48.799Z,9.20
2019-03-19T15:10:19.660Z,9.40
2019-03-19T15:12:48.174Z,9.40
2019-03-19T15:15:17.523Z,9.30
2019-03-19T15:17:46.184Z,9.20
2019-03-19T15:20:21.692Z,9.00
2019-03-19T15:22:50.128Z,9.10
2019-03-19T15:25:18.578Z,9.70
2019-03-19T15:27:47.081Z,10.00
2019-03-19T15:30:21.638Z,10.40
2019-03-19T15:32:50.122Z,10.60
2019-03-19T15:35:18.609Z,10.80
2019-03-19T15:37:47.510Z,10.80
2019-03-19T15:40:17.092Z,10.90
2019-03-19T15:42:45.550Z,11.00
2019-03-19T15:45:22.644Z,10.90
2019-03-19T15:47:51.089Z,10.30
2019-03-19T15:50:19.853Z,10.30
2019-03-19T15:52:48.312Z,10.10
2019-03-19T15:55:16.757Z,10.00
2019-03-19T15:57:45.266Z,9.80
2019-03-19T16:00:15.290Z,9.50
2019-03-19T16:02:43.961Z,9.20
2019-03-19T16:05:13.459Z,9.10
2019-03-19T16:07:42.501Z,9.00
2019-03-19T16:10:15.589Z,9.10
2019-03-19T16:12:44.031Z,9.10
2019-03-19T16:15:21.262Z,9.20
2019-03-19T16:17:49.715Z,9.10
2019-03-19T16:20:19.334Z,9.00
2019-03-19T16:22:47.783Z,8.90
2019-03-19T16:25:16.390Z,8.70
2019-03-19T16:27:44.876Z,8.60
2019-03-19T16:30:16.389Z,8.40
2019-03-19T16:32:44.878Z,8.30
2019-03-19T16:35:14.119Z,8.20
2019-03-19T16:37:42.563Z,8.10
2019-03-19T16:40:19.640Z,8.00
2019-03-19T16:42:48.082Z,8.00
2019-03-19T16:45:17.970Z,7.80
2019-03-19T16:47:46.912Z,7.70
2019-03-19T16:50:20.058Z,7.60
2019-03-19T16:52:48.585Z,7.50
2019-03-19T16:55:18.430Z,7.50
2019-03-19T16:57:46.883Z,7.50
2019-03-19T17:00:18.007Z,7.40
2019-03-19T17:02:46.507Z,7.30
2019-03-19T17:05:16.494Z,7.30
2019-03-19T17:07:44.940Z,7.20
2019-03-19T17:10:16.071Z,7.10
2019-03-19T17:12:44.714Z,7.00
2019-03-19T17:15:15.239Z,6.90
2019-03-19T17:17:43.196Z,6.80
2019-03-19T17:20:13.178Z,6.70
2019-03-19T17:22:41.839Z,6.60
2019-03-19T17:25:20.193Z,6.50
2019-03-19T17:27:48.796Z,6.30
2019-03-19T17:30:33.830Z,6.20
2019-03-19T17:33:02.414Z,6.00
2019-03-19T17:35:30.862Z,5.80
2019-03-19T17:37:59.305Z,5.70
2019-03-19T17:40:27.817Z,5.50
2019-03-19T17:42:56.261Z,5.40
2019-03-19T17:45:24.700Z,5.30
2019-03-19T17:47:53.191Z,5.10
2019-03-19T17:50:26.301Z,5.00
2019-03-19T17:52:55.861Z,4.90
2019-03-19T17:55:24.509Z,4.80
2019-03-19T17:57:52.985Z,4.70
2019-03-19T18:00:23.496Z,4.60
2019-03-19T18:02:51.265Z,4.50
2019-03-19T18:05:19.716Z,4.50
2019-03-19T18:07:48.198Z,4.40
2019-03-19T18:10:16.818Z,4.30
2019-03-19T18:12:45.318Z,4.20
2019-03-19T18:15:20.320Z,4.10
2019-03-19T18:17:48.942Z,4.00
2019-03-19T18:20:18.356Z,3.90
2019-03-19T18:22:46.805Z,3.80
2019-03-19T18:25:16.456Z,3.80
2019-03-19T18:27:44.917Z,3.80
2019-03-19T18:30:24.376Z,3.70
2019-03-19T18:32:52.813Z,3.60
2019-03-19T18:35:21.348Z,3.60
2019-03-19T18:37:49.830Z,3.50
2019-03-19T18:40:19.113Z,3.50
2019-03-19T18:42:47.621Z,3.40
2019-03-19T18:45:18.556Z,3.30
2019-03-19T18:47:47.073Z,3.30
2019-03-19T18:50:22.477Z,3.20
2019-03-19T18:52:50.927Z,3.20
2019-03-19T18:55:19.370Z,3.10
2019-03-19T18:57:47.841Z,3.00
2019-03-19T19:00:23.205Z,3.00
2019-03-19T19:02:51.704Z,2.90
2019-03-19T19:05:24.081Z,2.90
2019-03-19T19:07:52.585Z,2.80
2019-03-19T19:10:21.675Z,2.80
2019-03-19T19:12:50.490Z,2.70
2019-03-19T19:15:21.211Z,2.70
2019-03-19T19:17:49.688Z,2.60
2019-03-19T19:20:18.607Z,2.60
2019-03-19T19:22:47.117Z,2.60
2019-03-19T19:25:24.455Z,2.50
2019-03-19T19:27:52.973Z,2.50
2019-03-19T19:30:29.658Z,2.50
2019-03-19T19:33:01.936Z,2.40
2019-03-19T19:35:28.274Z,2.40
2019-03-19T19:37:56.745Z,2.40
2019-03-19T19:40:25.251Z,2.30
2019-03-19T19:42:53.696Z,2.30
2019-03-19T19:45:22.147Z,2.30
2019-03-19T19:47:51.561Z,2.30
2019-03-19T19:50:22.061Z,2.20
2019-03-19T19:52:49.726Z,2.10
2019-03-19T19:55:18.296Z,2.10
2019-03-19T19:57:47.176Z,2.10
2019-03-19T20:00:20.085Z,2.10
2019-03-19T20:02:48.821Z,2.00
2019-03-19T20:05:17.436Z,2.00
2019-03-19T20:07:45.958Z,1.90
2019-03-19T20:10:25.482Z,1.90
2019-03-19T20:12:54.006Z,1.90
2019-03-19T20:15:22.445Z,1.80
2019-03-19T20:17:50.950Z,1.80
2019-03-19T20:20:24.586Z,1.80
2019-03-19T20:22:53.037Z,1.80
2019-03-19T20:25:21.504Z,1.70
2019-03-19T20:27:49.963Z,1.70
2019-03-19T20:30:20.031Z,1.70
2019-03-19T20:32:48.529Z,1.70
2019-03-19T20:35:16.969Z,1.60
2019-03-19T20:37:45.495Z,1.60
2019-03-19T20:40:17.325Z,1.50
2019-03-19T20:42:46.110Z,1.50
2019-03-19T20:45:24.195Z,1.50
2019-03-19T20:47:52.648Z,1.50
2019-03-19T20:50:26.325Z,1.40
2019-03-19T20:52:54.806Z,1.40
2019-03-19T20:55:23.242Z,1.40
2019-03-19T20:57:52.057Z,1.30
2019-03-19T21:00:20.690Z,1.30
2019-03-19T21:02:49.146Z,1.30
2019-03-19T21:05:17.642Z,1.20
2019-03-19T21:07:46.158Z,1.20
2019-03-19T21:10:17.155Z,1.10
2019-03-19T21:12:45.701Z,1.10
2019-03-19T21:15:19.361Z,1.00
2019-03-19T21:17:48.930Z,1.00
2019-03-19T21:20:17.740Z,1.00
2019-03-19T21:22:46.277Z,1.00
2019-03-19T21:25:14.723Z,0.90
2019-03-19T21:27:44.790Z,0.90
2019-03-19T21:30:16.099Z,0.90
2019-03-19T21:32:44.548Z,0.90
2019-03-19T21:35:13.381Z,0.90
2019-03-19T21:37:41.908Z,0.80
2019-03-19T21:40:12.998Z,0.80
2019-03-19T21:42:41.527Z,0.80
2019-03-19T21:45:14.605Z,0.80
2019-03-19T21:47:43.036Z,0.70
2019-03-19T21:50:14.167Z,0.70
2019-03-19T21:52:42.679Z,0.70
2019-03-19T21:55:14.071Z,0.70
2019-03-19T21:57:42.098Z,0.70
2019-03-19T22:00:18.501Z,0.70
2019-03-19T22:02:46.989Z,0.60
2019-03-19T22:05:15.698Z,0.60
2019-03-19T22:07:44.144Z,0.60
2019-03-19T22:10:17.022Z,0.50
2019-03-19T22:12:45.465Z,0.40
2019-03-19T22:15:16.508Z,0.40
2019-03-19T22:17:45.098Z,0.50
2019-03-19T22:20:34.737Z,0.40
2019-03-19T22:23:03.247Z,0.40
2019-03-19T22:25:31.686Z,0.40
2019-03-19T22:28:00.120Z,0.40
2019-03-19T22:30:28.644Z,0.40
2019-03-19T22:32:57.081Z,0.40
2019-03-19T22:35:25.528Z,0.30
2019-03-19T22:37:54.008Z,0.30
2019-03-19T22:40:22.453Z,0.30
2019-03-19T22:42:50.933Z,0.30
2019-03-19T22:45:19.814Z,0.20
2019-03-19T22:47:48.583Z,0.20
2019-03-19T22:50:17.980Z,0.20
2019-03-19T22:52:46.662Z,0.20
2019-03-19T22:55:15.976Z,0.20
2019-03-19T22:57:44.784Z,0.20
2019-03-19T23:00:23.113Z,0.10
2019-03-19T23:02:51.692Z,0.10
2019-03-19T23:05:20.142Z,0.10
2019-03-19T23:07:48.653Z,0.10
2019-03-19T23:10:17.094Z,0.10
2019-03-19T23:12:45.546Z,0.10
2019-03-19T23:15:14.469Z,0.00
2019-03-19T23:17:42.981Z,0.00
2019-03-19T23:20:14.966Z,0.00
2019-03-19T23:22:43.443Z,0.00
2019-03-19T23:25:12.416Z,0.00
2019-03-19T23:27:40.913Z,-0.10
2019-03-19T23:30:17.510Z,-0.10
2019-03-19T23:32:46.632Z,-0.10
2019-03-19T23:35:15.156Z,-0.10
2019-03-19T23:37:43.660Z,-0.20
2019-03-19T23:40:14.048Z,-0.10
2019-03-19T23:42:41.714Z,-0.20
2019-03-19T23:45:11.741Z,-0.20
2019-03-19T23:47:40.190Z,-0.20
2019-03-19T23:50:15.779Z,-0.20
2019-03-19T23:52:44.289Z,-0.30
2019-03-19T23:55:13.262Z,-0.20
2019-03-19T23:57:41.743Z,-0.30
